Levittown, Pennsylvania
Current Conditions -  °F | °C
As of 8:54 PM on Friday 21 Nov 2014 (Local Time) from KPNE Reporting Station
Clear Clear  
Wind Chill: 22°   Ceiling: Unl
Heat Index: 30°   Visibility: 10mi
Dew Point:   Wind: 8mph
Humidity: 40%   Direction: 280°W
Pressure: 30.52"   Gusts: NA
Location:  40.16°N, 74.89°W
Report Text: KPNE 220154Z AUTO 28007KT 10SM CLR M01/M13 A3052 RMK AO2 SLP337 T10111133 TSNO
Loading
Personal Weather Stations






























Interactive Weather Map New forecast layout! Learn more

10-Day Weather Forecast

Advertisements
Track Severe Weather on mobile